sensor_id;sensor_type;location;lat;lon;timestamp;P1;durP1;ratioP1;P2;durP2;ratioP2
23282;SDS011;11810;51.178;3.878;2023-08-12T00:02:12;9.68;;;6.90;;
23282;SDS011;11810;51.178;3.878;2023-08-12T00:04:38;12.45;;;7.53;;
23282;SDS011;11810;51.178;3.878;2023-08-12T00:07:04;14.73;;;7.43;;
23282;SDS011;11810;51.178;3.878;2023-08-12T00:09:30;15.40;;;7.55;;
23282;SDS011;11810;51.178;3.878;2023-08-12T00:11:55;11.95;;;6.60;;
23282;SDS011;11810;51.178;3.878;2023-08-12T00:14:21;12.95;;;7.88;;
23282;SDS011;11810;51.178;3.878;2023-08-12T00:16:47;16.52;;;7.32;;
23282;SDS011;11810;51.178;3.878;2023-08-12T00:19:13;16.40;;;7.03;;
23282;SDS011;11810;51.178;3.878;2023-08-12T00:21:39;16.02;;;7.68;;
23282;SDS011;11810;51.178;3.878;2023-08-12T00:24:05;15.57;;;7.47;;
23282;SDS011;11810;51.178;3.878;2023-08-12T00:26:31;11.95;;;6.70;;
23282;SDS011;11810;51.178;3.878;2023-08-12T00:28:57;16.15;;;7.43;;
23282;SDS011;11810;51.178;3.878;2023-08-12T00:31:23;9.55;;;7.05;;
23282;SDS011;11810;51.178;3.878;2023-08-12T00:33:49;15.63;;;6.88;;
23282;SDS011;11810;51.178;3.878;2023-08-12T00:36:15;13.85;;;6.75;;
23282;SDS011;11810;51.178;3.878;2023-08-12T00:38:41;11.02;;;7.07;;
23282;SDS011;11810;51.178;3.878;2023-08-12T00:41:07;12.30;;;7.13;;
23282;SDS011;11810;51.178;3.878;2023-08-12T00:43:33;14.50;;;7.28;;
23282;SDS011;11810;51.178;3.878;2023-08-12T00:45:59;13.98;;;7.50;;
23282;SDS011;11810;51.178;3.878;2023-08-12T00:48:25;14.63;;;6.90;;
23282;SDS011;11810;51.178;3.878;2023-08-12T00:50:51;12.75;;;7.18;;
23282;SDS011;11810;51.178;3.878;2023-08-12T00:53:18;13.13;;;6.55;;
23282;SDS011;11810;51.178;3.878;2023-08-12T00:55:45;12.35;;;7.38;;
23282;SDS011;11810;51.178;3.878;2023-08-12T00:58:11;10.68;;;6.20;;
23282;SDS011;11810;51.178;3.878;2023-08-12T01:00:37;15.18;;;6.90;;
23282;SDS011;11810;51.178;3.878;2023-08-12T01:03:03;14.10;;;6.55;;
23282;SDS011;11810;51.178;3.878;2023-08-12T01:05:31;12.40;;;6.57;;
23282;SDS011;11810;51.178;3.878;2023-08-12T01:07:58;22.10;;;7.85;;
23282;SDS011;11810;51.178;3.878;2023-08-12T01:10:24;12.45;;;6.53;;
23282;SDS011;11810;51.178;3.878;2023-08-12T01:13:10;12.27;;;7.15;;
23282;SDS011;11810;51.178;3.878;2023-08-12T01:15:51;18.35;;;7.13;;
23282;SDS011;11810;51.178;3.878;2023-08-12T01:18:20;13.55;;;6.40;;
23282;SDS011;11810;51.178;3.878;2023-08-12T01:20:49;11.48;;;6.35;;
23282;SDS011;11810;51.178;3.878;2023-08-12T01:23:15;16.77;;;6.93;;
23282;SDS011;11810;51.178;3.878;2023-08-12T01:25:42;11.45;;;6.88;;
23282;SDS011;11810;51.178;3.878;2023-08-12T01:28:08;15.27;;;6.75;;
23282;SDS011;11810;51.178;3.878;2023-08-12T01:30:35;11.65;;;5.90;;
23282;SDS011;11810;51.178;3.878;2023-08-12T01:33:28;12.77;;;6.28;;
23282;SDS011;11810;51.178;3.878;2023-08-12T01:36:17;13.50;;;7.03;;
23282;SDS011;11810;51.178;3.878;2023-08-12T01:38:45;11.13;;;5.80;;
23282;SDS011;11810;51.178;3.878;2023-08-12T01:41:13;11.38;;;6.80;;
23282;SDS011;11810;51.178;3.878;2023-08-12T01:43:41;12.30;;;5.72;;
23282;SDS011;11810;51.178;3.878;2023-08-12T01:46:08;13.48;;;6.22;;
23282;SDS011;11810;51.178;3.878;2023-08-12T01:48:35;15.13;;;6.75;;
23282;SDS011;11810;51.178;3.878;2023-08-12T01:51:01;13.38;;;5.10;;
23282;SDS011;11810;51.178;3.878;2023-08-12T01:53:27;14.48;;;5.78;;
23282;SDS011;11810;51.178;3.878;2023-08-12T01:55:52;15.18;;;5.60;;
23282;SDS011;11810;51.178;3.878;2023-08-12T01:58:18;11.68;;;6.20;;
23282;SDS011;11810;51.178;3.878;2023-08-12T02:00:44;15.15;;;6.03;;
23282;SDS011;11810;51.178;3.878;2023-08-12T02:03:10;8.05;;;5.07;;
23282;SDS011;11810;51.178;3.878;2023-08-12T02:05:36;11.02;;;5.93;;
23282;SDS011;11810;51.178;3.878;2023-08-12T02:08:03;11.88;;;5.57;;
23282;SDS011;11810;51.178;3.878;2023-08-12T02:10:30;14.52;;;6.25;;
23282;SDS011;11810;51.178;3.878;2023-08-12T02:12:56;16.98;;;6.45;;
23282;SDS011;11810;51.178;3.878;2023-08-12T02:15:21;17.27;;;7.05;;
23282;SDS011;11810;51.178;3.878;2023-08-12T02:17:48;15.88;;;7.07;;
23282;SDS011;11810;51.178;3.878;2023-08-12T02:20:14;14.32;;;6.78;;
23282;SDS011;11810;51.178;3.878;2023-08-12T02:22:39;16.45;;;7.05;;
23282;SDS011;11810;51.178;3.878;2023-08-12T02:25:06;21.27;;;7.75;;
23282;SDS011;11810;51.178;3.878;2023-08-12T02:27:32;20.48;;;7.13;;
23282;SDS011;11810;51.178;3.878;2023-08-12T02:29:58;18.05;;;7.03;;
23282;SDS011;11810;51.178;3.878;2023-08-12T02:32:24;16.98;;;7.32;;
23282;SDS011;11810;51.178;3.878;2023-08-12T02:34:50;14.52;;;7.00;;
23282;SDS011;11810;51.178;3.878;2023-08-12T02:37:15;16.60;;;7.68;;
23282;SDS011;11810;51.178;3.878;2023-08-12T02:39:41;16.67;;;7.30;;
23282;SDS011;11810;51.178;3.878;2023-08-12T02:42:07;15.30;;;6.93;;
23282;SDS011;11810;51.178;3.878;2023-08-12T02:44:33;17.08;;;6.70;;
23282;SDS011;11810;51.178;3.878;2023-08-12T02:46:59;15.60;;;6.78;;
23282;SDS011;11810;51.178;3.878;2023-08-12T02:49:25;14.93;;;6.97;;
23282;SDS011;11810;51.178;3.878;2023-08-12T02:51:51;16.10;;;7.38;;
23282;SDS011;11810;51.178;3.878;2023-08-12T02:54:17;18.55;;;7.70;;
23282;SDS011;11810;51.178;3.878;2023-08-12T02:56:43;15.05;;;7.50;;
23282;SDS011;11810;51.178;3.878;2023-08-12T02:59:09;15.15;;;8.20;;
23282;SDS011;11810;51.178;3.878;2023-08-12T03:01:35;14.23;;;7.05;;
23282;SDS011;11810;51.178;3.878;2023-08-12T03:04:01;18.80;;;8.00;;
23282;SDS011;11810;51.178;3.878;2023-08-12T03:06:27;22.00;;;8.35;;
23282;SDS011;11810;51.178;3.878;2023-08-12T03:08:53;14.50;;;7.25;;
23282;SDS011;11810;51.178;3.878;2023-08-12T03:11:19;13.05;;;7.28;;
23282;SDS011;11810;51.178;3.878;2023-08-12T03:13:45;16.13;;;7.25;;
23282;SDS011;11810;51.178;3.878;2023-08-12T03:16:11;18.58;;;7.35;;
23282;SDS011;11810;51.178;3.878;2023-08-12T03:18:38;16.73;;;7.10;;
23282;SDS011;11810;51.178;3.878;2023-08-12T03:21:05;15.63;;;7.60;;
23282;SDS011;11810;51.178;3.878;2023-08-12T03:23:32;14.07;;;7.75;;
23282;SDS011;11810;51.178;3.878;2023-08-12T03:25:58;14.18;;;7.10;;
23282;SDS011;11810;51.178;3.878;2023-08-12T03:28:24;14.95;;;6.85;;
23282;SDS011;11810;51.178;3.878;2023-08-12T03:30:53;16.92;;;7.65;;
23282;SDS011;11810;51.178;3.878;2023-08-12T03:33:19;18.77;;;7.85;;
23282;SDS011;11810;51.178;3.878;2023-08-12T03:35:48;15.00;;;8.20;;
23282;SDS011;11810;51.178;3.878;2023-08-12T03:38:14;20.52;;;8.32;;
23282;SDS011;11810;51.178;3.878;2023-08-12T03:40:41;13.10;;;8.65;;
23282;SDS011;11810;51.178;3.878;2023-08-12T03:43:07;16.70;;;9.15;;
23282;SDS011;11810;51.178;3.878;2023-08-12T03:45:43;19.55;;;10.25;;
23282;SDS011;11810;51.178;3.878;2023-08-12T03:48:09;16.33;;;10.60;;
23282;SDS011;11810;51.178;3.878;2023-08-12T03:50:36;17.70;;;10.15;;
23282;SDS011;11810;51.178;3.878;2023-08-12T03:53:03;17.35;;;11.48;;
23282;SDS011;11810;51.178;3.878;2023-08-12T03:55:35;21.50;;;11.77;;
23282;SDS011;11810;51.178;3.878;2023-08-12T03:58:01;20.35;;;12.00;;
23282;SDS011;11810;51.178;3.878;2023-08-12T04:00:27;20.45;;;11.27;;
23282;SDS011;11810;51.178;3.878;2023-08-12T04:02:53;26.88;;;11.57;;
23282;SDS011;11810;51.178;3.878;2023-08-12T04:05:19;16.52;;;10.40;;
23282;SDS011;11810;51.178;3.878;2023-08-12T04:07:45;18.65;;;10.98;;
23282;SDS011;11810;51.178;3.878;2023-08-12T04:10:11;15.95;;;10.15;;
23282;SDS011;11810;51.178;3.878;2023-08-12T04:12:37;18.90;;;10.40;;
23282;SDS011;11810;51.178;3.878;2023-08-12T04:15:05;15.55;;;10.50;;
23282;SDS011;11810;51.178;3.878;2023-08-12T04:17:31;19.80;;;11.18;;
23282;SDS011;11810;51.178;3.878;2023-08-12T04:19:57;15.25;;;10.57;;
23282;SDS011;11810;51.178;3.878;2023-08-12T04:22:23;20.48;;;11.43;;
23282;SDS011;11810;51.178;3.878;2023-08-12T04:24:49;14.23;;;10.40;;
23282;SDS011;11810;51.178;3.878;2023-08-12T04:27:15;19.42;;;11.45;;
23282;SDS011;11810;51.178;3.878;2023-08-12T04:29:42;16.70;;;10.88;;
23282;SDS011;11810;51.178;3.878;2023-08-12T04:32:08;14.77;;;10.52;;
23282;SDS011;11810;51.178;3.878;2023-08-12T04:34:34;20.70;;;11.48;;
23282;SDS011;11810;51.178;3.878;2023-08-12T04:37:00;15.45;;;10.75;;
23282;SDS011;11810;51.178;3.878;2023-08-12T04:39:26;14.52;;;9.20;;
23282;SDS011;11810;51.178;3.878;2023-08-12T04:41:52;17.73;;;9.02;;
23282;SDS011;11810;51.178;3.878;2023-08-12T04:44:18;13.23;;;7.70;;
23282;SDS011;11810;51.178;3.878;2023-08-12T04:46:44;14.07;;;7.57;;
23282;SDS011;11810;51.178;3.878;2023-08-12T04:49:10;10.02;;;6.60;;
23282;SDS011;11810;51.178;3.878;2023-08-12T04:51:36;9.32;;;6.00;;
23282;SDS011;11810;51.178;3.878;2023-08-12T04:54:02;10.45;;;6.20;;
23282;SDS011;11810;51.178;3.878;2023-08-12T04:56:28;7.50;;;6.32;;
23282;SDS011;11810;51.178;3.878;2023-08-12T04:58:54;6.85;;;5.50;;
23282;SDS011;11810;51.178;3.878;2023-08-12T05:01:21;7.43;;;5.20;;
23282;SDS011;11810;51.178;3.878;2023-08-12T05:03:47;3.83;;;2.75;;
23282;SDS011;11810;51.178;3.878;2023-08-12T05:06:12;0.10;;;0.10;;
23282;SDS011;11810;51.178;3.878;2023-08-12T05:08:38;0.25;;;0.25;;
23282;SDS011;11810;51.178;3.878;2023-08-12T05:11:04;0.10;;;0.10;;
23282;SDS011;11810;51.178;3.878;2023-08-12T05:13:30;0.45;;;0.45;;
23282;SDS011;11810;51.178;3.878;2023-08-12T05:15:56;0.10;;;0.10;;
23282;SDS011;11810;51.178;3.878;2023-08-12T05:18:22;0.20;;;0.20;;
23282;SDS011;11810;51.178;3.878;2023-08-12T05:20:49;0.00;;;0.00;;
23282;SDS011;11810;51.178;3.878;2023-08-12T05:23:20;0.20;;;0.20;;
23282;SDS011;11810;51.178;3.878;2023-08-12T05:25:46;1.35;;;0.85;;
23282;SDS011;11810;51.178;3.878;2023-08-12T05:28:12;0.22;;;0.22;;
23282;SDS011;11810;51.178;3.878;2023-08-12T05:30:38;0.10;;;0.10;;
23282;SDS011;11810;51.178;3.878;2023-08-12T05:33:04;0.00;;;0.00;;
23282;SDS011;11810;51.178;3.878;2023-08-12T05:35:34;0.00;;;0.00;;
23282;SDS011;11810;51.178;3.878;2023-08-12T05:38:01;0.10;;;0.10;;
23282;SDS011;11810;51.178;3.878;2023-08-12T05:40:27;0.00;;;0.00;;
23282;SDS011;11810;51.178;3.878;2023-08-12T05:42:53;0.00;;;0.00;;
23282;SDS011;11810;51.178;3.878;2023-08-12T05:45:19;0.10;;;0.10;;
23282;SDS011;11810;51.178;3.878;2023-08-12T05:47:46;0.17;;;0.17;;
23282;SDS011;11810;51.178;3.878;2023-08-12T05:50:12;0.00;;;0.00;;
23282;SDS011;11810;51.178;3.878;2023-08-12T05:52:38;0.00;;;0.00;;
23282;SDS011;11810;51.178;3.878;2023-08-12T05:55:04;0.00;;;0.00;;
23282;SDS011;11810;51.178;3.878;2023-08-12T05:57:30;0.00;;;0.00;;
23282;SDS011;11810;51.178;3.878;2023-08-12T05:59:56;0.00;;;0.00;;
23282;SDS011;11810;51.178;3.878;2023-08-12T06:02:22;0.00;;;0.00;;
23282;SDS011;11810;51.178;3.878;2023-08-12T06:04:50;0.20;;;0.20;;
23282;SDS011;11810;51.178;3.878;2023-08-12T06:07:15;39.00;;;1.02;;
23282;SDS011;11810;51.178;3.878;2023-08-12T06:09:41;0.00;;;0.00;;
23282;SDS011;11810;51.178;3.878;2023-08-12T06:12:07;1.30;;;1.20;;
23282;SDS011;11810;51.178;3.878;2023-08-12T06:14:34;1.65;;;0.85;;
23282;SDS011;11810;51.178;3.878;2023-08-12T06:17:04;0.35;;;0.35;;
23282;SDS011;11810;51.178;3.878;2023-08-12T06:19:30;0.00;;;0.00;;
23282;SDS011;11810;51.178;3.878;2023-08-12T06:21:56;0.00;;;0.00;;
23282;SDS011;11810;51.178;3.878;2023-08-12T06:24:22;0.10;;;0.10;;
23282;SDS011;11810;51.178;3.878;2023-08-12T06:26:48;0.00;;;0.00;;
23282;SDS011;11810;51.178;3.878;2023-08-12T06:29:14;0.30;;;0.30;;
23282;SDS011;11810;51.178;3.878;2023-08-12T06:31:40;0.00;;;0.00;;
23282;SDS011;11810;51.178;3.878;2023-08-12T06:34:05;0.00;;;0.00;;
23282;SDS011;11810;51.178;3.878;2023-08-12T06:36:32;13.15;;;0.68;;
23282;SDS011;11810;51.178;3.878;2023-08-12T06:38:58;0.10;;;0.10;;
23282;SDS011;11810;51.178;3.878;2023-08-12T06:41:24;0.05;;;0.05;;
23282;SDS011;11810;51.178;3.878;2023-08-12T06:43:50;2.92;;;1.25;;
23282;SDS011;11810;51.178;3.878;2023-08-12T06:46:16;0.20;;;0.20;;
23282;SDS011;11810;51.178;3.878;2023-08-12T06:48:42;0.10;;;0.10;;
23282;SDS011;11810;51.178;3.878;2023-08-12T06:51:08;0.10;;;0.10;;
23282;SDS011;11810;51.178;3.878;2023-08-12T06:53:37;0.10;;;0.10;;
23282;SDS011;11810;51.178;3.878;2023-08-12T06:56:04;0.00;;;0.00;;
23282;SDS011;11810;51.178;3.878;2023-08-12T06:58:30;0.17;;;0.17;;
23282;SDS011;11810;51.178;3.878;2023-08-12T07:00:56;0.40;;;0.40;;
23282;SDS011;11810;51.178;3.878;2023-08-12T07:03:24;0.00;;;0.00;;
23282;SDS011;11810;51.178;3.878;2023-08-12T07:05:51;0.00;;;0.00;;
23282;SDS011;11810;51.178;3.878;2023-08-12T07:08:18;0.00;;;0.00;;
23282;SDS011;11810;51.178;3.878;2023-08-12T07:10:43;1.02;;;0.73;;
23282;SDS011;11810;51.178;3.878;2023-08-12T07:13:09;0.10;;;0.10;;
23282;SDS011;11810;51.178;3.878;2023-08-12T07:15:35;0.65;;;0.65;;
23282;SDS011;11810;51.178;3.878;2023-08-12T07:18:01;0.28;;;0.28;;
23282;SDS011;11810;51.178;3.878;2023-08-12T07:20:27;0.43;;;0.22;;
23282;SDS011;11810;51.178;3.878;2023-08-12T07:22:53;0.10;;;0.10;;
23282;SDS011;11810;51.178;3.878;2023-08-12T07:25:21;0.20;;;0.20;;
23282;SDS011;11810;51.178;3.878;2023-08-12T07:27:47;0.85;;;0.85;;
23282;SDS011;11810;51.178;3.878;2023-08-12T07:30:13;19.10;;;7.78;;
23282;SDS011;11810;51.178;3.878;2023-08-12T07:32:39;15.38;;;5.05;;
23282;SDS011;11810;51.178;3.878;2023-08-12T07:35:05;8.65;;;3.63;;
23282;SDS011;11810;51.178;3.878;2023-08-12T07:37:31;27.95;;;7.68;;
23282;SDS011;11810;51.178;3.878;2023-08-12T07:39:57;19.42;;;10.15;;
23282;SDS011;11810;51.178;3.878;2023-08-12T07:42:23;29.75;;;13.00;;
23282;SDS011;11810;51.178;3.878;2023-08-12T07:44:49;55.10;;;29.95;;
23282;SDS011;11810;51.178;3.878;2023-08-12T07:47:15;60.22;;;35.05;;
23282;SDS011;11810;51.178;3.878;2023-08-12T07:49:42;79.07;;;47.50;;
23282;SDS011;11810;51.178;3.878;2023-08-12T07:52:08;88.07;;;50.90;;
23282;SDS011;11810;51.178;3.878;2023-08-12T07:54:35;76.35;;;41.72;;
23282;SDS011;11810;51.178;3.878;2023-08-12T07:57:01;80.65;;;43.33;;
23282;SDS011;11810;51.178;3.878;2023-08-12T07:59:27;71.70;;;40.72;;
23282;SDS011;11810;51.178;3.878;2023-08-12T08:01:53;44.10;;;22.85;;
23282;SDS011;11810;51.178;3.878;2023-08-12T08:04:19;57.58;;;32.55;;
23282;SDS011;11810;51.178;3.878;2023-08-12T08:06:45;51.50;;;31.08;;
23282;SDS011;11810;51.178;3.878;2023-08-12T08:09:11;63.28;;;36.15;;
23282;SDS011;11810;51.178;3.878;2023-08-12T08:11:37;79.55;;;47.33;;
23282;SDS011;11810;51.178;3.878;2023-08-12T08:14:03;52.15;;;32.35;;
23282;SDS011;11810;51.178;3.878;2023-08-12T08:16:29;52.80;;;31.45;;
23282;SDS011;11810;51.178;3.878;2023-08-12T08:18:55;54.00;;;34.00;;
23282;SDS011;11810;51.178;3.878;2023-08-12T08:21:21;51.10;;;27.33;;
23282;SDS011;11810;51.178;3.878;2023-08-12T08:23:47;50.42;;;28.95;;
23282;SDS011;11810;51.178;3.878;2023-08-12T08:26:12;56.70;;;31.00;;
23282;SDS011;11810;51.178;3.878;2023-08-12T08:28:40;44.97;;;26.85;;
23282;SDS011;11810;51.178;3.878;2023-08-12T08:31:06;36.92;;;21.33;;
23282;SDS011;11810;51.178;3.878;2023-08-12T08:33:32;69.63;;;46.05;;
23282;SDS011;11810;51.178;3.878;2023-08-12T08:35:58;47.80;;;31.48;;
23282;SDS011;11810;51.178;3.878;2023-08-12T08:38:24;70.32;;;44.58;;
23282;SDS011;11810;51.178;3.878;2023-08-12T08:40:50;51.53;;;29.35;;
23282;SDS011;11810;51.178;3.878;2023-08-12T08:43:20;22.30;;;11.80;;
23282;SDS011;11810;51.178;3.878;2023-08-12T08:45:52;44.47;;;28.40;;
23282;SDS011;11810;51.178;3.878;2023-08-12T08:48:20;26.38;;;13.38;;
23282;SDS011;11810;51.178;3.878;2023-08-12T08:50:46;15.70;;;7.00;;
23282;SDS011;11810;51.178;3.878;2023-08-12T08:53:17;13.88;;;7.57;;
23282;SDS011;11810;51.178;3.878;2023-08-12T08:55:43;11.07;;;3.53;;
23282;SDS011;11810;51.178;3.878;2023-08-12T08:58:10;13.00;;;4.82;;
23282;SDS011;11810;51.178;3.878;2023-08-12T09:00:37;11.52;;;3.80;;
23282;SDS011;11810;51.178;3.878;2023-08-12T09:03:04;11.48;;;6.28;;
23282;SDS011;11810;51.178;3.878;2023-08-12T09:05:31;10.85;;;4.50;;
23282;SDS011;11810;51.178;3.878;2023-08-12T09:07:59;9.82;;;5.32;;
23282;SDS011;11810;51.178;3.878;2023-08-12T09:10:27;15.18;;;5.35;;
23282;SDS011;11810;51.178;3.878;2023-08-12T09:12:55;24.58;;;15.50;;
23282;SDS011;11810;51.178;3.878;2023-08-12T09:15:21;13.65;;;8.27;;
23282;SDS011;11810;51.178;3.878;2023-08-12T09:17:47;17.45;;;9.57;;
23282;SDS011;11810;51.178;3.878;2023-08-12T09:20:13;17.02;;;7.60;;
23282;SDS011;11810;51.178;3.878;2023-08-12T09:22:40;27.08;;;13.40;;
23282;SDS011;11810;51.178;3.878;2023-08-12T09:25:06;29.80;;;17.35;;
23282;SDS011;11810;51.178;3.878;2023-08-12T09:27:35;10.35;;;5.57;;
23282;SDS011;11810;51.178;3.878;2023-08-12T09:30:02;20.45;;;10.65;;
23282;SDS011;11810;51.178;3.878;2023-08-12T09:32:30;19.05;;;11.48;;
23282;SDS011;11810;51.178;3.878;2023-08-12T09:34:56;13.07;;;5.72;;
23282;SDS011;11810;51.178;3.878;2023-08-12T09:37:23;17.40;;;6.72;;
23282;SDS011;11810;51.178;3.878;2023-08-12T09:39:52;16.42;;;6.97;;
23282;SDS011;11810;51.178;3.878;2023-08-12T09:42:18;16.95;;;6.20;;
23282;SDS011;11810;51.178;3.878;2023-08-12T09:44:45;17.77;;;9.57;;
23282;SDS011;11810;51.178;3.878;2023-08-12T09:47:12;10.82;;;3.78;;
23282;SDS011;11810;51.178;3.878;2023-08-12T09:49:38;16.42;;;4.65;;
23282;SDS011;11810;51.178;3.878;2023-08-12T09:52:04;10.93;;;3.55;;
23282;SDS011;11810;51.178;3.878;2023-08-12T09:54:33;7.47;;;2.80;;
23282;SDS011;11810;51.178;3.878;2023-08-12T09:57:00;34.78;;;21.48;;
23282;SDS011;11810;51.178;3.878;2023-08-12T09:59:29;45.00;;;29.08;;
23282;SDS011;11810;51.178;3.878;2023-08-12T10:01:57;21.20;;;10.32;;
23282;SDS011;11810;51.178;3.878;2023-08-12T10:04:26;23.33;;;13.65;;
23282;SDS011;11810;51.178;3.878;2023-08-12T10:06:55;27.98;;;13.15;;
23282;SDS011;11810;51.178;3.878;2023-08-12T10:09:20;12.60;;;7.40;;
23282;SDS011;11810;51.178;3.878;2023-08-12T10:11:47;7.55;;;3.42;;
23282;SDS011;11810;51.178;3.878;2023-08-12T10:14:15;8.23;;;2.22;;
23282;SDS011;11810;51.178;3.878;2023-08-12T10:16:42;10.50;;;4.40;;
23282;SDS011;11810;51.178;3.878;2023-08-12T10:19:11;13.18;;;7.22;;
23282;SDS011;11810;51.178;3.878;2023-08-12T10:21:40;18.85;;;10.52;;
23282;SDS011;11810;51.178;3.878;2023-08-12T10:24:07;33.45;;;21.67;;
23282;SDS011;11810;51.178;3.878;2023-08-12T10:26:35;48.28;;;32.97;;
23282;SDS011;11810;51.178;3.878;2023-08-12T10:29:02;44.75;;;30.60;;
23282;SDS011;11810;51.178;3.878;2023-08-12T10:31:28;32.17;;;19.05;;
23282;SDS011;11810;51.178;3.878;2023-08-12T10:33:54;56.42;;;39.42;;
23282;SDS011;11810;51.178;3.878;2023-08-12T10:36:22;49.70;;;35.20;;
23282;SDS011;11810;51.178;3.878;2023-08-12T10:38:48;24.48;;;14.93;;
23282;SDS011;11810;51.178;3.878;2023-08-12T10:41:21;9.23;;;2.80;;
23282;SDS011;11810;51.178;3.878;2023-08-12T10:46:21;11.40;;;2.70;;
23282;SDS011;11810;51.178;3.878;2023-08-12T10:54:18;6.90;;;1.88;;
23282;SDS011;11810;51.178;3.878;2023-08-12T11:02:27;9.40;;;2.47;;
23282;SDS011;11810;51.178;3.878;2023-08-12T11:07:23;9.27;;;3.25;;
23282;SDS011;11810;51.178;3.878;2023-08-12T11:10:16;7.38;;;1.92;;
23282;SDS011;11810;51.178;3.878;2023-08-12T11:15:41;6.63;;;3.17;;
23282;SDS011;11810;51.178;3.878;2023-08-12T11:18:15;9.10;;;2.88;;
23282;SDS011;11810;51.178;3.878;2023-08-12T11:20:46;6.68;;;2.70;;
23282;SDS011;11810;51.178;3.878;2023-08-12T11:23:14;6.13;;;1.75;;
23282;SDS011;11810;51.178;3.878;2023-08-12T11:25:42;7.88;;;2.40;;
23282;SDS011;11810;51.178;3.878;2023-08-12T11:28:09;9.32;;;2.00;;
23282;SDS011;11810;51.178;3.878;2023-08-12T11:30:35;6.50;;;3.10;;
23282;SDS011;11810;51.178;3.878;2023-08-12T11:33:01;7.53;;;1.70;;
23282;SDS011;11810;51.178;3.878;2023-08-12T11:35:28;9.45;;;1.83;;
23282;SDS011;11810;51.178;3.878;2023-08-12T11:37:55;4.30;;;1.40;;
23282;SDS011;11810;51.178;3.878;2023-08-12T11:40:23;6.20;;;1.85;;
23282;SDS011;11810;51.178;3.878;2023-08-12T11:42:50;7.80;;;1.65;;
23282;SDS011;11810;51.178;3.878;2023-08-12T11:45:20;6.00;;;1.85;;
23282;SDS011;11810;51.178;3.878;2023-08-12T11:47:48;4.07;;;1.48;;
23282;SDS011;11810;51.178;3.878;2023-08-12T11:50:17;4.95;;;1.50;;
23282;SDS011;11810;51.178;3.878;2023-08-12T11:52:51;11.38;;;2.72;;
23282;SDS011;11810;51.178;3.878;2023-08-12T11:55:18;5.80;;;1.77;;
23282;SDS011;11810;51.178;3.878;2023-08-12T11:57:44;5.82;;;2.10;;
23282;SDS011;11810;51.178;3.878;2023-08-12T12:00:11;9.93;;;1.80;;
23282;SDS011;11810;51.178;3.878;2023-08-12T12:02:51;8.40;;;1.88;;
23282;SDS011;11810;51.178;3.878;2023-08-12T12:05:21;8.60;;;1.95;;
23282;SDS011;11810;51.178;3.878;2023-08-12T12:07:48;5.35;;;1.85;;
23282;SDS011;11810;51.178;3.878;2023-08-12T12:12:57;5.68;;;1.73;;
23282;SDS011;11810;51.178;3.878;2023-08-12T12:15:23;7.68;;;1.90;;
23282;SDS011;11810;51.178;3.878;2023-08-12T12:17:50;9.13;;;2.63;;
23282;SDS011;11810;51.178;3.878;2023-08-12T12:20:16;5.13;;;2.08;;
23282;SDS011;11810;51.178;3.878;2023-08-12T12:22:43;11.52;;;1.88;;
23282;SDS011;11810;51.178;3.878;2023-08-12T12:25:13;9.95;;;1.98;;
23282;SDS011;11810;51.178;3.878;2023-08-12T12:27:45;11.35;;;2.40;;
23282;SDS011;11810;51.178;3.878;2023-08-12T12:30:12;10.23;;;3.58;;
23282;SDS011;11810;51.178;3.878;2023-08-12T12:32:39;8.50;;;1.85;;
23282;SDS011;11810;51.178;3.878;2023-08-12T12:35:06;8.82;;;1.88;;
23282;SDS011;11810;51.178;3.878;2023-08-12T12:37:33;8.25;;;1.92;;
23282;SDS011;11810;51.178;3.878;2023-08-12T12:39:59;8.18;;;1.67;;
23282;SDS011;11810;51.178;3.878;2023-08-12T12:42:25;8.43;;;1.80;;
23282;SDS011;11810;51.178;3.878;2023-08-12T12:44:51;10.82;;;2.15;;
23282;SDS011;11810;51.178;3.878;2023-08-12T12:47:17;6.63;;;2.08;;
23282;SDS011;11810;51.178;3.878;2023-08-12T12:49:44;10.68;;;2.40;;
23282;SDS011;11810;51.178;3.878;2023-08-12T12:52:11;4.78;;;1.73;;
23282;SDS011;11810;51.178;3.878;2023-08-12T12:54:36;12.30;;;1.83;;
23282;SDS011;11810;51.178;3.878;2023-08-12T12:57:02;9.25;;;3.35;;
23282;SDS011;11810;51.178;3.878;2023-08-12T12:59:31;7.13;;;1.70;;
23282;SDS011;11810;51.178;3.878;2023-08-12T13:01:57;7.07;;;2.10;;
23282;SDS011;11810;51.178;3.878;2023-08-12T13:04:24;7.25;;;2.00;;
23282;SDS011;11810;51.178;3.878;2023-08-12T13:06:50;8.15;;;2.75;;
23282;SDS011;11810;51.178;3.878;2023-08-12T13:09:15;10.52;;;3.78;;
23282;SDS011;11810;51.178;3.878;2023-08-12T13:11:41;6.25;;;1.95;;
23282;SDS011;11810;51.178;3.878;2023-08-12T13:14:07;8.63;;;1.85;;
23282;SDS011;11810;51.178;3.878;2023-08-12T13:16:33;10.15;;;2.55;;
23282;SDS011;11810;51.178;3.878;2023-08-12T13:18:59;12.18;;;2.45;;
23282;SDS011;11810;51.178;3.878;2023-08-12T13:21:26;7.43;;;2.28;;
23282;SDS011;11810;51.178;3.878;2023-08-12T13:23:52;5.22;;;2.00;;
23282;SDS011;11810;51.178;3.878;2023-08-12T13:26:20;7.78;;;2.00;;
23282;SDS011;11810;51.178;3.878;2023-08-12T13:28:46;10.85;;;2.15;;
23282;SDS011;11810;51.178;3.878;2023-08-12T13:31:13;8.80;;;2.55;;
23282;SDS011;11810;51.178;3.878;2023-08-12T13:33:39;13.57;;;5.53;;
23282;SDS011;11810;51.178;3.878;2023-08-12T13:36:05;14.77;;;4.78;;
23282;SDS011;11810;51.178;3.878;2023-08-12T13:38:31;11.95;;;4.75;;
23282;SDS011;11810;51.178;3.878;2023-08-12T13:40:57;14.98;;;6.50;;
23282;SDS011;11810;51.178;3.878;2023-08-12T13:43:22;21.10;;;7.07;;
23282;SDS011;11810;51.178;3.878;2023-08-12T13:45:48;24.63;;;9.85;;
23282;SDS011;11810;51.178;3.878;2023-08-12T13:48:14;18.88;;;7.75;;
23282;SDS011;11810;51.178;3.878;2023-08-12T13:50:40;12.48;;;4.22;;
23282;SDS011;11810;51.178;3.878;2023-08-12T13:53:07;12.52;;;2.75;;
23282;SDS011;11810;51.178;3.878;2023-08-12T13:55:32;13.95;;;4.53;;
23282;SDS011;11810;51.178;3.878;2023-08-12T13:57:58;11.25;;;3.45;;
23282;SDS011;11810;51.178;3.878;2023-08-12T14:00:24;12.75;;;5.25;;
23282;SDS011;11810;51.178;3.878;2023-08-12T14:02:51;16.00;;;4.95;;
23282;SDS011;11810;51.178;3.878;2023-08-12T14:05:16;14.98;;;6.43;;
23282;SDS011;11810;51.178;3.878;2023-08-12T14:07:42;8.35;;;2.80;;
23282;SDS011;11810;51.178;3.878;2023-08-12T14:10:09;9.27;;;3.40;;
23282;SDS011;11810;51.178;3.878;2023-08-12T14:12:35;11.30;;;2.60;;
23282;SDS011;11810;51.178;3.878;2023-08-12T14:15:01;12.77;;;3.90;;
23282;SDS011;11810;51.178;3.878;2023-08-12T14:17:27;9.93;;;3.28;;
23282;SDS011;11810;51.178;3.878;2023-08-12T14:19:53;6.38;;;2.55;;
23282;SDS011;11810;51.178;3.878;2023-08-12T14:22:19;7.70;;;2.67;;
23282;SDS011;11810;51.178;3.878;2023-08-12T14:24:45;9.35;;;2.28;;
23282;SDS011;11810;51.178;3.878;2023-08-12T14:27:13;9.05;;;2.28;;
23282;SDS011;11810;51.178;3.878;2023-08-12T14:29:41;13.95;;;4.50;;
23282;SDS011;11810;51.178;3.878;2023-08-12T14:32:07;7.35;;;2.15;;
23282;SDS011;11810;51.178;3.878;2023-08-12T14:34:33;13.43;;;3.30;;
23282;SDS011;11810;51.178;3.878;2023-08-12T14:37:01;13.88;;;4.00;;
23282;SDS011;11810;51.178;3.878;2023-08-12T14:39:28;12.20;;;3.65;;
23282;SDS011;11810;51.178;3.878;2023-08-12T14:41:54;12.43;;;2.60;;
23282;SDS011;11810;51.178;3.878;2023-08-12T14:44:20;7.13;;;2.70;;
23282;SDS011;11810;51.178;3.878;2023-08-12T14:46:46;9.55;;;1.67;;
23282;SDS011;11810;51.178;3.878;2023-08-12T14:49:11;8.52;;;2.10;;
23282;SDS011;11810;51.178;3.878;2023-08-12T14:51:38;8.93;;;2.00;;
23282;SDS011;11810;51.178;3.878;2023-08-12T14:54:04;8.18;;;1.55;;
23282;SDS011;11810;51.178;3.878;2023-08-12T14:56:30;7.03;;;2.08;;